Time;durP1;ratioP1;P1;durP2;ratioP2;P2;SDS_P1;SDS_P2;PMS_P1;PMS_P2;Temp;Humidity;BMP_temperature;BMP_pressure;BME280_temperature;BME280_humidity;BME280_pressure;Samples;Min_cycle;Max_cycle;Signal;HPM_P1;HPM_P2
2023/12/06 00:02:10;;;;;;;47.97;22.20;;;-0.30;99.90;;;;;;4962895;28;20062;-74
2023/12/06 00:04:35;;;;;;;55.70;24.83;;;-0.30;99.90;;;;;;4944709;28;20056;-74
2023/12/06 00:07:01;;;;;;;51.05;23.63;;;-0.30;99.90;;;;;;4946360;28;20511;-74
2023/12/06 00:09:27;;;;;;;55.38;23.67;;;-0.30;99.90;;;;;;4952643;28;20242;-74
2023/12/06 00:11:52;;;;;;;50.35;22.10;;;-0.30;99.90;;;;;;4949996;28;20038;-74
2023/12/06 00:14:18;;;;;;;52.53;22.50;;;-0.30;99.90;;;;;;4947953;28;20035;-74
2023/12/06 00:16:44;;;;;;;52.10;22.83;;;-0.30;99.90;;;;;;4956608;28;20633;-74
2023/12/06 00:19:09;;;;;;;52.97;23.63;;;-0.30;99.90;;;;;;4958683;28;20038;-74
2023/12/06 00:21:35;;;;;;;54.30;24.52;;;-0.30;99.90;;;;;;4936175;28;20042;-74
2023/12/06 00:24:01;;;;;;;48.58;23.35;;;-0.40;99.90;;;;;;4955871;28;20474;-74
2023/12/06 00:26:26;;;;;;;51.50;24.73;;;-0.30;99.90;;;;;;4983789;28;20039;-74
2023/12/06 00:28:53;;;;;;;54.75;24.63;;;-0.20;99.90;;;;;;4964782;28;20409;-74
2023/12/06 00:31:19;;;;;;;52.08;24.77;;;-0.30;99.90;;;;;;4952829;28;20101;-74
2023/12/06 00:33:44;;;;;;;49.78;22.52;;;-0.30;99.90;;;;;;4923629;28;20039;-74
2023/12/06 00:36:10;;;;;;;47.75;21.10;;;-0.20;99.90;;;;;;4952911;28;20042;-73
2023/12/06 00:38:36;;;;;;;54.45;24.30;;;-0.30;99.90;;;;;;4971437;28;20412;-74
2023/12/06 00:41:01;;;;;;;49.30;22.13;;;-0.30;99.90;;;;;;4936403;29;20054;-74
2023/12/06 00:43:27;;;;;;;54.72;22.83;;;-0.30;99.90;;;;;;4944538;28;20050;-74
2023/12/06 00:45:54;;;;;;;47.17;23.13;;;-0.30;99.90;;;;;;4945843;28;20471;-74
2023/12/06 00:48:19;;;;;;;46.72;22.15;;;-0.30;99.90;;;;;;4970415;28;20130;-74
2023/12/06 00:50:45;;;;;;;45.88;22.27;;;-0.30;99.90;;;;;;4971323;28;20117;-74
2023/12/06 00:53:11;;;;;;;48.05;21.77;;;-0.30;99.90;;;;;;4939188;28;20043;-74
2023/12/06 00:55:36;;;;;;;41.33;20.50;;;-0.30;99.90;;;;;;4969275;28;20057;-74
2023/12/06 00:58:02;;;;;;;56.22;23.38;;;-0.30;99.90;;;;;;4960289;28;20047;-74
2023/12/06 01:00:28;;;;;;;49.47;22.33;;;-0.30;99.90;;;;;;4947380;28;20549;-74
2023/12/06 01:02:54;;;;;;;48.40;22.40;;;-0.30;99.90;;;;;;4965777;28;20049;-74
2023/12/06 01:05:19;;;;;;;53.00;24.65;;;-0.30;99.90;;;;;;4955991;28;20045;-74
2023/12/06 01:07:45;;;;;;;49.33;22.63;;;-0.30;99.90;;;;;;4944283;28;20058;-74
2023/12/06 01:10:11;;;;;;;49.33;22.67;;;-0.30;99.90;;;;;;4952768;28;20072;-73
2023/12/06 01:12:36;;;;;;;53.55;23.50;;;-0.30;99.90;;;;;;4951729;28;20505;-74
2023/12/06 01:15:04;;;;;;;45.75;22.00;;;-0.30;99.90;;;;;;4953267;28;20504;-74
2023/12/06 01:17:32;;;;;;;49.25;22.23;;;-0.30;99.90;;;;;;4933719;28;20145;-74
2023/12/06 01:19:58;;;;;;;51.33;22.42;;;-0.30;99.90;;;;;;4962749;28;20096;-74
2023/12/06 01:22:24;;;;;;;49.58;22.85;;;-0.20;99.90;;;;;;4951361;28;20484;-74
2023/12/06 01:24:49;;;;;;;51.30;21.73;;;-0.20;99.90;;;;;;4961700;28;20046;-74
2023/12/06 01:27:15;;;;;;;45.47;21.90;;;-0.20;99.90;;;;;;4980499;28;20039;-74
2023/12/06 01:29:41;;;;;;;46.20;22.02;;;-0.20;99.90;;;;;;4943205;28;20075;-74
2023/12/06 01:32:06;;;;;;;49.80;24.10;;;-0.20;99.90;;;;;;4951576;28;20051;-74
2023/12/06 01:34:32;;;;;;;43.55;21.20;;;-0.20;99.90;;;;;;4948007;28;20047;-74
2023/12/06 01:36:58;;;;;;;40.80;20.58;;;-0.20;99.90;;;;;;4965653;28;20039;-74
2023/12/06 01:39:23;;;;;;;46.25;22.02;;;-0.20;99.90;;;;;;4947389;28;20031;-74
2023/12/06 01:41:50;;;;;;;48.10;21.55;;;-0.20;99.90;;;;;;4943654;28;20042;-74
2023/12/06 01:44:16;;;;;;;41.53;20.58;;;-0.20;99.90;;;;;;4963703;28;20046;-74
2023/12/06 01:46:42;;;;;;;45.00;21.40;;;-0.20;99.90;;;;;;4963084;28;20045;-74
2023/12/06 01:49:10;;;;;;;42.78;21.52;;;0.30;99.90;;;;;;4964216;28;20053;-74
2023/12/06 01:51:37;;;;;;;44.88;22.65;;;-0.20;99.90;;;;;;4952555;28;20049;-74
2023/12/06 01:54:03;;;;;;;47.63;21.65;;;-0.20;99.90;;;;;;4949667;28;20054;-74
2023/12/06 01:56:29;;;;;;;39.45;19.92;;;-0.20;99.90;;;;;;4962923;28;20517;-74
2023/12/06 01:58:54;;;;;;;43.95;21.70;;;-0.20;99.90;;;;;;4955636;28;20078;-74
2023/12/06 02:01:20;;;;;;;49.80;22.30;;;-0.20;99.90;;;;;;4939920;28;20050;-74
2023/12/06 02:03:46;;;;;;;48.15;22.33;;;-0.20;99.90;;;;;;4954452;28;20113;-74
2023/12/06 02:06:12;;;;;;;50.72;21.73;;;-0.20;99.90;;;;;;4959852;28;20035;-74
2023/12/06 02:08:41;;;;;;;53.30;23.15;;;-0.20;99.90;;;;;;4951008;28;20051;-74
2023/12/06 02:11:07;;;;;;;49.47;23.40;;;-0.20;99.90;;;;;;4984882;28;20046;-74
2023/12/06 02:13:33;;;;;;;53.47;24.10;;;-0.20;99.90;;;;;;4964756;28;20042;-74
2023/12/06 02:15:59;;;;;;;50.00;22.17;;;-0.20;99.90;;;;;;4963593;28;20082;-74
2023/12/06 02:18:26;;;;;;;48.88;23.42;;;-0.20;99.90;;;;;;4956947;28;20073;-74
2023/12/06 02:20:53;;;;;;;49.30;22.23;;;-0.20;99.90;;;;;;4962446;28;20397;-74
2023/12/06 02:23:23;;;;;;;40.95;18.95;;;-0.20;99.90;;;;;;4965111;28;20050;-74
2023/12/06 02:25:49;;;;;;;51.55;22.10;;;-0.20;99.90;;;;;;4960603;28;20046;-74
2023/12/06 02:28:15;;;;;;;53.38;23.70;;;-0.20;99.90;;;;;;4942025;28;20502;-74
2023/12/06 02:30:40;;;;;;;45.75;21.25;;;-0.20;99.90;;;;;;4964426;28;20048;-74
2023/12/06 02:33:06;;;;;;;54.30;23.42;;;0.60;99.90;;;;;;4940418;28;20035;-74
2023/12/06 02:35:51;;;;;;;52.10;22.33;;;-0.10;99.90;;;;;;4943422;28;21078;-74
2023/12/06 02:38:19;;;;;;;49.88;22.27;;;-0.20;99.90;;;;;;4961045;28;20039;-74
2023/12/06 02:40:48;;;;;;;53.63;23.92;;;-0.10;99.90;;;;;;4957645;28;20497;-74
2023/12/06 02:43:15;;;;;;;50.67;23.20;;;-0.20;99.90;;;;;;4960900;28;20097;-74
2023/12/06 02:45:41;;;;;;;53.55;22.70;;;-0.10;99.90;;;;;;4950751;28;20043;-74
2023/12/06 02:48:07;;;;;;;52.08;21.77;;;-0.10;99.90;;;;;;4962730;28;20135;-74
2023/12/06 02:50:33;;;;;;;51.13;23.13;;;-0.10;99.90;;;;;;4955997;28;20060;-74
2023/12/06 02:52:59;;;;;;;52.95;23.55;;;-0.10;99.90;;;;;;4947869;28;20046;-74
2023/12/06 02:55:24;;;;;;;52.35;21.48;;;-0.10;99.90;;;;;;4955180;28;20063;-74
2023/12/06 02:57:50;;;;;;;57.10;25.90;;;-0.10;99.90;;;;;;4953749;28;20082;-74
2023/12/06 03:00:16;;;;;;;45.75;22.30;;;-0.10;99.90;;;;;;4954730;28;20449;-74
2023/12/06 03:02:42;;;;;;;48.78;22.52;;;-0.10;99.90;;;;;;4961204;28;20548;-74
2023/12/06 03:05:08;;;;;;;52.25;23.75;;;-0.10;99.90;;;;;;4966408;28;20106;-74
2023/12/06 03:07:33;;;;;;;55.47;23.20;;;-0.10;99.90;;;;;;4954774;28;20038;-74
2023/12/06 03:10:00;;;;;;;50.90;23.25;;;-0.10;99.90;;;;;;4952426;28;20489;-74
2023/12/06 03:12:25;;;;;;;45.35;22.42;;;-0.10;99.90;;;;;;4948782;28;20035;-74
2023/12/06 03:14:51;;;;;;;52.35;23.52;;;0.20;99.90;;;;;;4952587;28;20113;-74
2023/12/06 03:17:17;;;;;;;53.55;23.52;;;-0.10;99.90;;;;;;4960180;28;20051;-74
2023/12/06 03:19:42;;;;;;;51.72;22.35;;;-0.10;99.90;;;;;;4949836;28;20493;-74
2023/12/06 03:22:08;;;;;;;48.15;22.60;;;0.00;99.90;;;;;;4960892;28;20041;-74
2023/12/06 03:24:34;;;;;;;60.67;24.67;;;0.00;99.90;;;;;;4968107;28;20047;-74
2023/12/06 03:26:59;;;;;;;49.30;20.92;;;0.00;99.90;;;;;;4951149;28;20122;-74
2023/12/06 03:29:25;;;;;;;51.80;23.42;;;0.00;99.90;;;;;;4957975;28;20077;-74
2023/12/06 03:31:51;;;;;;;55.30;22.33;;;1.30;99.90;;;;;;4947528;28;20030;-75
2023/12/06 03:34:16;;;;;;;47.58;22.13;;;0.00;99.90;;;;;;4960166;28;20539;-74
2023/12/06 03:36:42;;;;;;;52.00;24.08;;;0.00;99.90;;;;;;4945626;28;20571;-74
2023/12/06 03:39:08;;;;;;;59.70;24.02;;;0.00;99.90;;;;;;4946703;28;20081;-74
2023/12/06 03:41:33;;;;;;;47.83;23.17;;;0.00;99.90;;;;;;4947138;28;20043;-74
2023/12/06 03:43:59;;;;;;;52.50;23.00;;;0.00;99.90;;;;;;4946072;28;20170;-74
2023/12/06 03:46:24;;;;;;;59.03;23.45;;;0.00;99.90;;;;;;4937266;28;20042;-74
2023/12/06 03:48:50;;;;;;;52.47;23.70;;;0.00;99.90;;;;;;4946122;28;20043;-74
2023/12/06 03:51:16;;;;;;;51.35;21.85;;;0.00;99.90;;;;;;4953048;28;20483;-74
2023/12/06 03:53:43;;;;;;;49.33;22.45;;;0.00;99.90;;;;;;4951515;28;20050;-74
2023/12/06 03:56:09;;;;;;;51.63;23.48;;;0.00;99.90;;;;;;4946847;28;20409;-74
2023/12/06 03:58:37;;;;;;;58.78;24.30;;;0.00;99.90;;;;;;4964068;28;20042;-74
2023/12/06 04:01:04;;;;;;;50.65;22.23;;;0.00;99.90;;;;;;4945104;28;20039;-74
2023/12/06 04:03:30;;;;;;;52.65;22.20;;;0.00;99.90;;;;;;4950724;28;20051;-74
2023/12/06 04:05:56;;;;;;;46.40;19.73;;;0.00;99.90;;;;;;4945179;28;20046;-74
2023/12/06 04:08:22;;;;;;;47.72;22.23;;;0.00;99.90;;;;;;4940858;28;20330;-74
2023/12/06 04:10:47;;;;;;;53.10;22.73;;;0.00;99.90;;;;;;4957208;28;20095;-74
2023/12/06 04:13:13;;;;;;;55.90;23.75;;;0.00;99.90;;;;;;4952105;28;20035;-74
2023/12/06 04:15:39;;;;;;;46.17;22.08;;;0.00;99.90;;;;;;4968440;28;20046;-74
2023/12/06 04:18:05;;;;;;;44.85;21.10;;;0.00;99.90;;;;;;4964811;28;20073;-74
2023/12/06 04:20:31;;;;;;;48.05;21.63;;;0.00;99.90;;;;;;4941521;28;20043;-74
2023/12/06 04:22:57;;;;;;;51.92;24.10;;;0.10;99.90;;;;;;4959014;28;20576;-74
2023/12/06 04:25:22;;;;;;;48.10;21.95;;;0.10;99.90;;;;;;4949047;28;20622;-74
2023/12/06 04:27:48;;;;;;;47.45;21.52;;;0.00;99.90;;;;;;4957131;28;20141;-74
2023/12/06 04:30:14;;;;;;;53.17;22.02;;;0.10;99.90;;;;;;4944095;28;20047;-74
2023/12/06 04:32:40;;;;;;;43.42;18.98;;;0.20;99.90;;;;;;4958444;28;20429;-74
2023/12/06 04:35:09;;;;;;;51.80;22.50;;;0.40;99.90;;;;;;4942131;28;20041;-74
2023/12/06 04:37:35;;;;;;;45.05;20.92;;;0.00;99.90;;;;;;4945693;28;20039;-74
2023/12/06 04:40:01;;;;;;;39.88;19.77;;;0.10;99.90;;;;;;4958145;28;20097;-74
2023/12/06 04:42:26;;;;;;;42.83;18.92;;;0.10;99.90;;;;;;4949327;28;20121;-74
2023/12/06 04:44:52;;;;;;;41.65;19.20;;;0.10;99.90;;;;;;4941539;28;20039;-74
2023/12/06 04:47:18;;;;;;;40.05;17.88;;;0.10;99.90;;;;;;4966530;28;20493;-74
2023/12/06 04:49:44;;;;;;;41.92;18.40;;;0.00;99.90;;;;;;4958011;28;20046;-74
2023/12/06 04:52:09;;;;;;;40.30;17.13;;;0.10;99.90;;;;;;4945147;28;20129;-74
2023/12/06 04:54:35;;;;;;;37.10;17.42;;;0.00;99.90;;;;;;4947534;28;20054;-74
2023/12/06 04:57:01;;;;;;;36.47;17.23;;;0.20;99.90;;;;;;4948843;28;20480;-74
2023/12/06 04:59:26;;;;;;;38.45;17.75;;;0.10;99.90;;;;;;4952474;28;20039;-74
2023/12/06 05:01:53;;;;;;;34.78;18.17;;;0.10;99.90;;;;;;4951099;28;20097;-74
2023/12/06 05:04:19;;;;;;;38.90;18.20;;;1.60;99.90;;;;;;4946582;28;20081;-74
2023/12/06 05:06:45;;;;;;;36.25;18.17;;;0.00;99.90;;;;;;4942413;28;20039;-74
2023/12/06 05:09:12;;;;;;;40.83;17.85;;;0.00;99.90;;;;;;4933539;28;20041;-74
2023/12/06 05:11:37;;;;;;;39.33;17.63;;;0.00;99.90;;;;;;4970190;28;20121;-74
2023/12/06 05:14:03;;;;;;;30.90;16.05;;;0.00;99.90;;;;;;4953907;28;20178;-74
2023/12/06 05:16:29;;;;;;;36.00;17.08;;;0.00;99.90;;;;;;4953268;28;20031;-74
2023/12/06 05:18:55;;;;;;;37.13;17.05;;;0.10;99.90;;;;;;4954700;28;20038;-74
2023/12/06 05:21:20;;;;;;;35.97;17.52;;;0.00;99.90;;;;;;4964819;28;20047;-74
2023/12/06 05:23:46;;;;;;;33.58;16.83;;;0.00;99.90;;;;;;4965820;28;20042;-74
2023/12/06 05:26:12;;;;;;;35.35;16.95;;;0.00;99.90;;;;;;4947911;28;20050;-74
2023/12/06 05:28:37;;;;;;;31.80;16.15;;;0.10;99.90;;;;;;4908796;28;20034;-74
2023/12/06 05:31:03;;;;;;;30.25;14.88;;;0.60;99.90;;;;;;4961930;28;20035;-74
2023/12/06 05:33:29;;;;;;;30.67;17.20;;;0.70;99.90;;;;;;4940597;28;20047;-74
2023/12/06 05:35:57;;;;;;;39.45;15.82;;;0.00;99.90;;;;;;4949456;28;20448;-74
2023/12/06 05:38:23;;;;;;;46.67;20.27;;;0.10;99.90;;;;;;4962430;28;20066;-74
2023/12/06 05:40:49;;;;;;;35.13;18.88;;;0.10;99.90;;;;;;4964095;28;20102;-74
2023/12/06 05:43:15;;;;;;;36.83;16.83;;;0.10;99.90;;;;;;4926778;28;20087;-74
2023/12/06 05:45:41;;;;;;;36.55;17.75;;;0.10;99.90;;;;;;4946237;28;20134;-74
2023/12/06 05:48:07;;;;;;;36.08;17.48;;;0.10;99.90;;;;;;4965917;28;21274;-75
2023/12/06 05:50:33;;;;;;;38.80;18.13;;;0.10;99.90;;;;;;4960219;28;20085;-75
2023/12/06 05:52:59;;;;;;;31.83;18.15;;;0.10;99.90;;;;;;4949120;28;20082;-75
2023/12/06 05:55:24;;;;;;;39.53;16.58;;;0.20;99.90;;;;;;4951574;28;20129;-75
2023/12/06 05:57:50;;;;;;;35.50;16.98;;;0.10;99.90;;;;;;4955128;28;20039;-75
2023/12/06 06:00:17;;;;;;;41.17;18.30;;;0.10;99.90;;;;;;4940636;28;20062;-75
2023/12/06 06:02:43;;;;;;;40.25;16.52;;;0.10;99.90;;;;;;4941760;28;20043;-75
2023/12/06 06:05:10;;;;;;;37.10;16.83;;;0.10;99.90;;;;;;4956590;28;20042;-75
2023/12/06 06:07:36;;;;;;;39.00;19.00;;;0.10;99.90;;;;;;4961556;28;20492;-75
2023/12/06 06:10:02;;;;;;;37.05;19.08;;;0.10;99.90;;;;;;4951758;28;20126;-75
2023/12/06 06:12:29;;;;;;;36.13;17.52;;;0.20;99.90;;;;;;4960379;28;20031;-75
2023/12/06 06:14:55;;;;;;;34.15;17.17;;;0.20;99.90;;;;;;4939584;28;20045;-75
2023/12/06 06:17:21;;;;;;;34.65;17.27;;;0.10;99.90;;;;;;4944159;28;20132;-75
2023/12/06 06:19:47;;;;;;;33.90;17.92;;;0.20;99.90;;;;;;4956984;28;20481;-75
2023/12/06 06:22:13;;;;;;;39.42;18.80;;;0.20;99.90;;;;;;4941787;28;20047;-75
2023/12/06 06:24:38;;;;;;;35.25;16.95;;;0.20;99.90;;;;;;4953783;28;20045;-75
2023/12/06 06:27:04;;;;;;;36.22;17.60;;;0.20;99.90;;;;;;4976223;28;20042;-75
2023/12/06 06:29:30;;;;;;;33.30;16.23;;;0.20;99.90;;;;;;4938159;28;20050;-75
2023/12/06 06:31:56;;;;;;;37.33;19.30;;;0.20;99.90;;;;;;4953924;28;20038;-75
2023/12/06 06:34:21;;;;;;;33.05;19.08;;;0.50;99.90;;;;;;4954049;28;20093;-75
2023/12/06 06:36:47;;;;;;;30.33;16.80;;;0.10;99.90;;;;;;4954014;28;20049;-75
2023/12/06 06:39:13;;;;;;;36.30;18.25;;;0.70;99.90;;;;;;4953734;28;20042;-75
2023/12/06 06:41:39;;;;;;;34.63;16.58;;;0.60;99.90;;;;;;4953897;28;20043;-75
2023/12/06 06:44:05;;;;;;;31.20;17.02;;;0.40;99.90;;;;;;4953870;28;20039;-75
2023/12/06 06:46:31;;;;;;;38.00;17.13;;;0.20;99.90;;;;;;4970076;28;20607;-75
2023/12/06 06:48:56;;;;;;;38.60;18.80;;;0.30;99.90;;;;;;4969699;28;20515;-75
2023/12/06 06:51:35;;;;;;;35.88;18.25;;;0.20;99.90;;;;;;4953837;28;20129;-75
2023/12/06 06:54:06;;;;;;;31.55;15.88;;;0.40;99.90;;;;;;4969231;28;20079;-75
2023/12/06 06:56:33;;;;;;;37.97;17.00;;;0.20;99.90;;;;;;4953935;28;20053;-75
2023/12/06 06:58:59;;;;;;;45.10;17.95;;;0.20;99.90;;;;;;4953505;28;20516;-75
2023/12/06 07:01:25;;;;;;;33.28;17.25;;;0.20;99.90;;;;;;4969910;28;20201;-75
2023/12/06 07:03:51;;;;;;;32.22;16.25;;;0.20;99.90;;;;;;4953728;28;20555;-75
2023/12/06 07:06:17;;;;;;;32.30;15.73;;;0.20;99.90;;;;;;4966648;28;20409;-75
2023/12/06 07:08:42;;;;;;;38.95;17.98;;;0.20;99.90;;;;;;4943652;28;20173;-75
2023/12/06 07:11:08;;;;;;;36.72;18.38;;;0.60;99.90;;;;;;4953394;28;20113;-75
2023/12/06 07:13:34;;;;;;;32.03;16.02;;;0.20;99.90;;;;;;4969839;28;20362;-75
2023/12/06 07:16:00;;;;;;;37.15;18.83;;;0.20;99.90;;;;;;4969937;28;20121;-75
2023/12/06 07:18:27;;;;;;;36.28;16.08;;;0.20;99.90;;;;;;4937737;28;20251;-75
2023/12/06 07:20:52;;;;;;;32.50;16.50;;;0.20;99.90;;;;;;4969713;28;20049;-75
2023/12/06 07:23:18;;;;;;;36.08;18.05;;;0.30;99.90;;;;;;4953087;28;20082;-75
2023/12/06 07:25:45;;;;;;;35.03;17.50;;;0.20;99.90;;;;;;4970814;28;20034;-75
2023/12/06 07:28:12;;;;;;;46.15;18.42;;;0.30;99.90;;;;;;4956978;28;20098;-75
2023/12/06 07:30:37;;;;;;;33.83;17.88;;;0.20;99.90;;;;;;4956965;28;20039;-75
2023/12/06 07:33:03;;;;;;;38.42;17.02;;;0.30;99.90;;;;;;4957443;28;20041;-75
2023/12/06 07:35:29;;;;;;;32.75;17.67;;;0.30;99.90;;;;;;4956784;28;20762;-75
2023/12/06 07:37:55;;;;;;;42.42;17.75;;;0.30;99.90;;;;;;4957160;28;20075;-75
2023/12/06 07:40:21;;;;;;;31.15;16.85;;;0.30;99.90;;;;;;4956585;28;20408;-75
2023/12/06 07:42:48;;;;;;;34.50;16.50;;;0.30;99.90;;;;;;4965183;28;20046;-75
2023/12/06 07:45:14;;;;;;;32.95;16.20;;;0.30;99.90;;;;;;4972736;28;20053;-75
2023/12/06 07:47:39;;;;;;;30.85;17.20;;;0.30;99.90;;;;;;4973236;28;20121;-75
2023/12/06 07:50:07;;;;;;;36.38;17.60;;;0.30;99.90;;;;;;4956408;28;20544;-75
2023/12/06 07:52:33;;;;;;;36.95;17.67;;;0.30;99.90;;;;;;4941044;28;20038;-75
2023/12/06 07:55:06;;;;;;;33.08;17.17;;;0.30;99.90;;;;;;4971989;28;20125;-74
2023/12/06 07:57:32;;;;;;;38.72;19.33;;;0.30;99.90;;;;;;4957083;28;20061;-75
2023/12/06 07:59:58;;;;;;;30.77;16.67;;;0.30;99.90;;;;;;4956522;28;20047;-75
2023/12/06 08:02:25;;;;;;;37.25;18.42;;;0.40;99.90;;;;;;4956378;28;20209;-75
2023/12/06 08:04:50;;;;;;;34.22;18.52;;;0.70;99.90;;;;;;4956282;28;20070;-75
2023/12/06 08:07:16;;;;;;;36.30;17.63;;;0.40;99.90;;;;;;4959533;28;20076;-75
2023/12/06 08:09:42;;;;;;;35.92;17.63;;;0.40;99.90;;;;;;4974409;28;20400;-75
2023/12/06 08:12:08;;;;;;;33.42;18.15;;;0.80;99.90;;;;;;4956064;28;20074;-75
2023/12/06 08:14:34;;;;;;;35.63;18.55;;;0.40;99.90;;;;;;4972103;28;20043;-75
2023/12/06 08:17:00;;;;;;;45.28;21.20;;;0.40;99.90;;;;;;4971910;28;20038;-75
2023/12/06 08:19:26;;;;;;;62.28;22.00;;;0.80;99.90;;;;;;4971798;28;20178;-75
2023/12/06 08:21:52;;;;;;;43.45;20.83;;;0.50;99.90;;;;;;4955685;28;20038;-75
2023/12/06 08:24:17;;;;;;;48.90;20.85;;;0.50;99.90;;;;;;4939097;28;20039;-75
2023/12/06 08:26:43;;;;;;;37.40;19.95;;;0.50;99.90;;;;;;4955659;28;20066;-75
2023/12/06 08:29:09;;;;;;;35.58;17.77;;;0.50;99.90;;;;;;4985181;28;20043;-75
2023/12/06 08:31:38;;;;;;;32.95;16.55;;;0.50;99.90;;;;;;4971962;28;20536;-75
2023/12/06 08:34:03;;;;;;;33.83;17.10;;;0.50;99.90;;;;;;4955527;28;20049;-75
2023/12/06 08:36:29;;;;;;;33.63;17.70;;;0.50;99.90;;;;;;4971465;28;20043;-75
2023/12/06 08:38:55;;;;;;;34.83;17.70;;;0.60;99.90;;;;;;4955076;28;20047;-75
2023/12/06 08:41:22;;;;;;;30.13;17.05;;;0.60;99.90;;;;;;4955719;28;20074;-75
2023/12/06 08:43:48;;;;;;;34.17;16.98;;;0.60;99.90;;;;;;4955504;28;20043;-75
2023/12/06 08:46:13;;;;;;;31.95;17.55;;;0.70;99.90;;;;;;4955614;28;20035;-75
2023/12/06 08:48:39;;;;;;;33.42;17.00;;;0.60;99.90;;;;;;4971610;28;20527;-75
2023/12/06 08:51:05;;;;;;;32.25;16.95;;;0.60;99.90;;;;;;4939177;28;20169;-75
2023/12/06 08:53:31;;;;;;;29.75;15.95;;;0.60;99.90;;;;;;4955033;28;20043;-75
2023/12/06 08:55:56;;;;;;;28.50;15.55;;;0.60;99.90;;;;;;4938631;28;20058;-75
2023/12/06 08:58:23;;;;;;;33.22;18.13;;;1.20;99.90;;;;;;4955285;28;20049;-75
2023/12/06 09:00:49;;;;;;;35.65;16.52;;;0.70;99.90;;;;;;4955275;28;20047;-75
2023/12/06 09:03:15;;;;;;;29.58;16.17;;;0.70;99.90;;;;;;4940618;28;20038;-75
2023/12/06 09:05:41;;;;;;;22.27;12.00;;;0.70;99.90;;;;;;4971199;28;20043;-75
2023/12/06 09:08:07;;;;;;;27.67;15.93;;;0.70;99.90;;;;;;4938825;28;20049;-75
2023/12/06 09:10:32;;;;;;;17.08;9.88;;;0.80;99.90;;;;;;4954898;28;20043;-75
2023/12/06 09:12:58;;;;;;;29.92;16.58;;;1.00;99.90;;;;;;4954696;28;20416;-75
2023/12/06 09:15:24;;;;;;;31.88;15.80;;;0.80;99.90;;;;;;4939116;28;20071;-75
2023/12/06 09:17:49;;;;;;;32.10;15.25;;;0.90;99.90;;;;;;4954689;28;20042;-75
2023/12/06 09:20:16;;;;;;;26.23;15.18;;;1.20;99.90;;;;;;4954657;28;20130;-75
2023/12/06 09:22:42;;;;;;;27.02;17.08;;;0.90;99.90;;;;;;4938327;28;20038;-75
2023/12/06 09:25:08;;;;;;;31.23;16.27;;;1.20;99.90;;;;;;4970576;28;20098;-75
2023/12/06 09:27:33;;;;;;;28.30;14.93;;;0.90;99.90;;;;;;4954647;28;20124;-75
2023/12/06 09:29:59;;;;;;;20.58;11.35;;;1.00;99.90;;;;;;4954472;28;20078;-75
2023/12/06 09:32:25;;;;;;;26.42;14.95;;;1.00;99.90;;;;;;4970508;28;20050;-75
2023/12/06 09:34:50;;;;;;;27.75;14.82;;;1.20;99.90;;;;;;4970455;28;20038;-75
2023/12/06 09:37:16;;;;;;;23.27;13.18;;;1.00;99.90;;;;;;4954165;28;20046;-75
2023/12/06 09:39:43;;;;;;;33.97;16.50;;;1.10;99.90;;;;;;4954361;28;20077;-75
2023/12/06 09:42:10;;;;;;;26.35;13.77;;;1.10;99.90;;;;;;4938376;28;20039;-75
2023/12/06 09:44:37;;;;;;;29.70;16.25;;;1.50;99.90;;;;;;4970504;28;20038;-75
2023/12/06 09:47:03;;;;;;;27.00;15.68;;;1.10;99.90;;;;;;4954160;28;20101;-75
2023/12/06 09:49:29;;;;;;;29.25;15.48;;;1.10;99.90;;;;;;4969868;28;20042;-75
2023/12/06 09:52:07;;;;;;;28.67;16.17;;;1.10;99.90;;;;;;4954041;28;20070;-75
2023/12/06 09:54:33;;;;;;;29.33;14.68;;;1.10;99.90;;;;;;4969926;28;20113;-75
2023/12/06 09:56:58;;;;;;;26.98;15.27;;;1.20;99.90;;;;;;4953937;28;20138;-75
2023/12/06 09:59:24;;;;;;;27.63;15.88;;;1.20;99.90;;;;;;4953943;28;20043;-75
2023/12/06 10:01:50;;;;;;;24.23;13.45;;;1.30;99.90;;;;;;4954087;28;20061;-75
2023/12/06 10:04:15;;;;;;;25.45;14.73;;;1.20;99.90;;;;;;4953998;28;20093;-75
2023/12/06 10:06:44;;;;;;;35.85;15.70;;;1.20;99.90;;;;;;4954009;28;20492;-75
2023/12/06 10:09:10;;;;;;;33.60;17.00;;;1.20;99.90;;;;;;4953895;28;20050;-75
2023/12/06 10:11:36;;;;;;;31.17;18.65;;;1.30;99.90;;;;;;4953710;28;20049;-75
2023/12/06 10:14:02;;;;;;;38.67;19.25;;;1.30;99.90;;;;;;4986066;28;20503;-75
2023/12/06 10:16:28;;;;;;;32.83;17.52;;;1.30;99.90;;;;;;4953874;28;20031;-75
2023/12/06 10:18:56;;;;;;;29.70;15.82;;;1.90;99.90;;;;;;4969935;28;20413;-75
2023/12/06 10:21:22;;;;;;;33.45;15.95;;;1.40;99.90;;;;;;4969810;28;20050;-75
2023/12/06 10:24:00;;;;;;;30.75;16.48;;;1.40;99.90;;;;;;4969709;28;20043;-75
2023/12/06 10:26:30;;;;;;;32.35;16.48;;;1.40;99.90;;;;;;4953623;28;20445;-75
2023/12/06 10:28:56;;;;;;;33.22;17.05;;;1.40;99.90;;;;;;4953789;28;20550;-75
2023/12/06 10:31:21;;;;;;;30.80;18.05;;;1.50;99.90;;;;;;4953512;28;20599;-74
2023/12/06 10:33:56;;;;;;;32.95;19.02;;;1.40;99.90;;;;;;4953666;28;20066;-74
2023/12/06 10:36:28;;;;;;;29.30;16.95;;;1.40;99.90;;;;;;4969765;28;20047;-74
2023/12/06 10:38:55;;;;;;;25.38;15.13;;;1.40;99.90;;;;;;4972624;28;20041;-74
2023/12/06 10:41:24;;;;;;;26.63;13.70;;;1.40;99.90;;;;;;4965016;28;20054;-74
2023/12/06 10:43:52;;;;;;;24.15;14.38;;;1.40;99.90;;;;;;4953896;28;20039;-75
2023/12/06 10:46:19;;;;;;;22.73;13.82;;;1.40;99.90;;;;;;4953789;28;20093;-74
2023/12/06 10:48:47;;;;;;;26.05;13.77;;;1.40;99.90;;;;;;4953991;28;20112;-74
2023/12/06 10:51:14;;;;;;;23.15;14.27;;;1.40;99.90;;;;;;4953476;28;20122;-74
2023/12/06 10:53:42;;;;;;;25.55;14.57;;;1.40;99.90;;;;;;4969193;28;20049;-74
2023/12/06 10:56:09;;;;;;;29.70;13.38;;;1.40;99.90;;;;;;4937723;28;20054;-74
2023/12/06 10:58:35;;;;;;;20.83;12.43;;;1.40;99.90;;;;;;4968731;28;20459;-74
2023/12/06 11:01:02;;;;;;;37.35;14.80;;;1.50;99.90;;;;;;4951775;28;20053;-74
2023/12/06 11:03:27;;;;;;;26.98;14.30;;;1.40;99.90;;;;;;4973587;28;20047;-74
2023/12/06 11:05:58;;;;;;;24.38;10.93;;;1.50;99.90;;;;;;4941435;28;20053;-74
2023/12/06 11:08:52;;;;;;;24.42;13.88;;;2.00;99.90;;;;;;4956894;28;20496;-74
2023/12/06 11:11:42;;;;;;;27.30;12.90;;;1.50;99.90;;;;;;4951355;28;20054;-74
2023/12/06 11:14:30;;;;;;;26.98;13.85;;;1.50;99.90;;;;;;4956765;28;20034;-74
2023/12/06 11:17:18;;;;;;;30.60;16.02;;;1.50;99.90;;;;;;4961199;28;20050;-74
2023/12/06 11:19:44;;;;;;;23.73;13.15;;;1.50;99.90;;;;;;4972949;28;20121;-74
2023/12/06 11:22:10;;;;;;;22.85;13.43;;;1.50;99.90;;;;;;4973033;28;20129;-74
2023/12/06 11:24:36;;;;;;;22.30;12.98;;;1.60;99.90;;;;;;4972627;28;20461;-74
2023/12/06 11:27:03;;;;;;;21.58;12.60;;;1.60;99.90;;;;;;4957000;28;20129;-74
2023/12/06 11:29:30;;;;;;;25.63;13.13;;;1.60;99.90;;;;;;4956735;28;20042;-74
2023/12/06 11:31:58;;;;;;;23.77;13.30;;;1.70;99.90;;;;;;4972750;28;20034;-74
2023/12/06 11:34:34;;;;;;;23.80;13.63;;;1.60;99.90;;;;;;4956595;28;20071;-74
2023/12/06 11:37:03;;;;;;;24.13;14.25;;;2.10;99.90;;;;;;4956864;28;20507;-74
2023/12/06 11:39:29;;;;;;;23.70;14.07;;;1.70;99.90;;;;;;4956879;28;20066;-74
2023/12/06 11:41:56;;;;;;;26.98;14.90;;;1.70;99.90;;;;;;4972944;28;20259;-74
2023/12/06 11:44:21;;;;;;;28.58;15.77;;;1.70;99.90;;;;;;4956406;28;20054;-74
2023/12/06 11:46:52;;;;;;;31.55;14.90;;;1.70;99.90;;;;;;4972816;28;20043;-74
2023/12/06 11:49:22;;;;;;;30.08;14.65;;;2.00;99.90;;;;;;4956219;28;20035;-74
2023/12/06 11:52:01;;;;;;;23.52;14.02;;;1.70;99.90;;;;;;4957235;28;20071;-74
2023/12/06 11:54:28;;;;;;;31.85;14.30;;;1.80;99.90;;;;;;4955677;28;20043;-74
2023/12/06 11:57:06;;;;;;;20.75;12.45;;;1.80;99.90;;;;;;4956405;28;20042;-74
2023/12/06 11:59:33;;;;;;;23.90;13.48;;;1.80;99.90;;;;;;4971612;28;20122;-74
2023/12/06 12:01:59;;;;;;;30.67;16.52;;;1.80;99.90;;;;;;4972374;28;20042;-74
2023/12/06 12:04:26;;;;;;;30.80;16.42;;;1.80;99.90;;;;;;4955757;28;20071;-74
2023/12/06 12:06:52;;;;;;;24.27;14.93;;;1.80;99.90;;;;;;4955879;28;20046;-74
2023/12/06 12:09:20;;;;;;;24.50;13.73;;;1.80;99.90;;;;;;4972226;28;20051;-74
2023/12/06 12:11:45;;;;;;;23.65;14.30;;;1.80;99.90;;;;;;4971318;28;20504;-74
2023/12/06 12:14:11;;;;;;;30.02;14.32;;;2.20;99.90;;;;;;4956220;28;20034;-74
2023/12/06 12:16:39;;;;;;;25.02;13.50;;;2.20;99.90;;;;;;4972187;28;20432;-74
2023/12/06 12:19:06;;;;;;;24.65;13.32;;;2.00;99.90;;;;;;4972047;28;20128;-74
2023/12/06 12:21:32;;;;;;;21.25;12.98;;;2.30;99.90;;;;;;4940718;28;20686;-74
2023/12/06 12:24:00;;;;;;;24.65;12.85;;;2.00;99.90;;;;;;4971845;28;20141;-74
2023/12/06 12:26:26;;;;;;;21.05;13.40;;;2.00;99.90;;;;;;4956579;28;20287;-74
2023/12/06 12:28:52;;;;;;;21.30;11.55;;;2.00;99.90;;;;;;4939917;28;20043;-74
2023/12/06 12:31:25;;;;;;;27.55;13.10;;;2.00;99.90;;;;;;4971202;28;20038;-74
2023/12/06 12:33:51;;;;;;;;;;;2.60;99.90;;;;;;4947970;28;20031;-74